Time;durP1;ratioP1;P1;durP2;ratioP2;P2;SDS_P1;SDS_P2;PMS_P1;PMS_P2;Temp;Humidity;BMP_temperature;BMP_pressure;BME280_temperature;BME280_humidity;BME280_pressure;Samples;Min_cycle;Max_cycle;Signal;HPM_P1;HPM_P2
2024/01/26 00:01:50;;;;;;;0.95;0.95;;;8.10;99.90;;;;;;5007328;28;20056;-78
2024/01/26 00:04:16;;;;;;;1.13;1.13;;;8.10;99.90;;;;;;5007958;28;20547;-78
2024/01/26 00:06:42;;;;;;;0.60;0.60;;;8.20;99.90;;;;;;5007461;28;20133;-78
2024/01/26 00:09:12;;;;;;;0.75;0.75;;;8.20;99.90;;;;;;5007366;28;20496;-78
2024/01/26 00:11:40;;;;;;;0.73;0.60;;;8.20;99.90;;;;;;5006685;28;20038;-78
2024/01/26 00:14:07;;;;;;;5.05;1.55;;;8.30;99.90;;;;;;4975495;28;20393;-79
2024/01/26 00:16:34;;;;;;;1.48;1.42;;;8.30;99.90;;;;;;5008772;28;20053;-79
2024/01/26 00:18:59;;;;;;;1.75;1.67;;;8.30;99.90;;;;;;5009537;28;20042;-79
2024/01/26 00:21:25;;;;;;;2.38;2.17;;;8.30;99.90;;;;;;4990076;28;20088;-78
2024/01/26 00:23:51;;;;;;;0.93;0.93;;;8.40;99.90;;;;;;5006500;28;20049;-78
2024/01/26 00:26:17;;;;;;;0.70;0.70;;;8.40;99.90;;;;;;5012088;28;20033;-78
2024/01/26 00:28:42;;;;;;;1.60;1.50;;;8.40;99.90;;;;;;5008140;28;20474;-78
2024/01/26 00:31:18;;;;;;;2.00;1.90;;;8.50;99.90;;;;;;4987633;28;20415;-79
2024/01/26 00:33:45;;;;;;;0.40;0.40;;;8.50;99.90;;;;;;4991600;28;20066;-78
2024/01/26 00:36:13;;;;;;;5.18;1.95;;;8.50;99.90;;;;;;4992525;28;20041;-78
2024/01/26 00:38:40;;;;;;;1.90;1.80;;;8.50;99.90;;;;;;4993167;28;20577;-78
2024/01/26 00:41:06;;;;;;;1.38;0.75;;;8.50;99.90;;;;;;4985709;28;20502;-79
2024/01/26 00:43:32;;;;;;;0.38;0.38;;;8.50;99.90;;;;;;4976001;28;20068;-78
2024/01/26 00:45:57;;;;;;;3.00;2.03;;;8.50;99.90;;;;;;5010522;28;20124;-79
2024/01/26 00:48:24;;;;;;;3.47;2.08;;;8.50;99.90;;;;;;5008044;28;20041;-79
2024/01/26 00:50:50;;;;;;;1.75;0.95;;;8.60;99.90;;;;;;5007450;28;20034;-79
2024/01/26 00:53:17;;;;;;;1.35;1.25;;;8.60;99.90;;;;;;4992195;28;20037;-78
2024/01/26 00:55:43;;;;;;;1.15;1.05;;;8.60;99.90;;;;;;5008438;28;20038;-79
2024/01/26 00:58:15;;;;;;;2.58;1.85;;;8.70;99.90;;;;;;5005821;28;20399;-79
2024/01/26 01:00:43;;;;;;;2.80;2.13;;;8.70;99.90;;;;;;5005835;28;20104;-79
2024/01/26 01:03:09;;;;;;;3.42;1.40;;;8.70;99.90;;;;;;5007947;28;20049;-78
2024/01/26 01:05:35;;;;;;;4.97;2.17;;;8.70;99.90;;;;;;5006490;28;20121;-78
2024/01/26 01:08:00;;;;;;;1.38;1.27;;;8.80;99.90;;;;;;5004301;28;20573;-78
2024/01/26 01:10:26;;;;;;;12.38;1.98;;;8.80;99.90;;;;;;5007841;28;20044;-78
2024/01/26 01:12:52;;;;;;;1.23;1.23;;;8.80;99.90;;;;;;5004600;28;20449;-79
2024/01/26 01:15:18;;;;;;;5.18;1.48;;;8.90;99.90;;;;;;4991894;28;20041;-78
2024/01/26 01:17:45;;;;;;;2.75;2.42;;;8.90;99.90;;;;;;5008844;28;20105;-78
2024/01/26 01:20:13;;;;;;;1.60;1.38;;;8.90;99.90;;;;;;5008123;28;20049;-79
2024/01/26 01:22:41;;;;;;;1.23;1.17;;;8.90;99.90;;;;;;4991392;28;20095;-78
2024/01/26 01:25:08;;;;;;;1.38;1.35;;;8.90;99.90;;;;;;5008558;28;20172;-79
2024/01/26 01:27:36;;;;;;;0.65;0.65;;;9.00;99.90;;;;;;4990081;28;20444;-78
2024/01/26 01:30:13;;;;;;;1.73;1.63;;;9.00;99.90;;;;;;4972278;28;20168;-79
2024/01/26 01:32:38;;;;;;;1.50;1.40;;;9.00;99.90;;;;;;4991912;28;20046;-79
2024/01/26 01:35:08;;;;;;;0.93;0.88;;;9.00;99.90;;;;;;5008625;28;20491;-78
2024/01/26 01:37:34;;;;;;;;;;;9.00;99.90;;;;;;5008314;28;20117;-78
2024/01/26 01:39:59;;;;;;;1.15;0.70;;;9.00;99.90;;;;;;4991539;28;20012;-79
2024/01/26 01:42:26;;;;;;;1.60;1.27;;;9.00;99.90;;;;;;5006520;28;20042;-79
2024/01/26 01:44:52;;;;;;;0.60;0.60;;;9.00;99.90;;;;;;4992262;28;20507;-79
2024/01/26 01:47:18;;;;;;;1.48;1.45;;;9.00;99.90;;;;;;4988356;28;20049;-78
2024/01/26 01:49:46;;;;;;;1.85;1.58;;;9.10;99.90;;;;;;5006254;28;20143;-79
2024/01/26 01:52:18;;;;;;;2.72;2.53;;;9.20;99.90;;;;;;5002508;28;20481;-80
2024/01/26 01:54:44;;;;;;;1.50;1.40;;;9.20;99.90;;;;;;4991121;28;20056;-79
2024/01/26 01:57:14;;;;;;;0.57;0.57;;;9.20;99.90;;;;;;4986878;28;20038;-79
2024/01/26 01:59:41;;;;;;;0.73;0.73;;;9.20;99.90;;;;;;5006530;28;20049;-78
2024/01/26 02:02:09;;;;;;;1.52;1.42;;;9.20;99.90;;;;;;4988759;28;20166;-79
2024/01/26 02:04:42;;;;;;;0.55;0.55;;;9.20;99.90;;;;;;5003753;28;20054;-79
2024/01/26 02:07:09;;;;;;;1.60;1.55;;;9.20;99.90;;;;;;5007599;28;20038;-80
2024/01/26 02:09:36;;;;;;;1.42;1.33;;;9.20;99.90;;;;;;4988433;28;20041;-79
2024/01/26 02:12:01;;;;;;;2.10;1.20;;;9.20;99.90;;;;;;4991357;28;20049;-79
2024/01/26 02:14:27;;;;;;;1.25;0.70;;;9.20;99.90;;;;;;5007654;28;20037;-78
2024/01/26 02:16:58;;;;;;;1.55;1.45;;;9.30;99.90;;;;;;4986683;28;20054;-78
2024/01/26 02:19:25;;;;;;;1.20;1.10;;;9.30;99.90;;;;;;5006481;28;20044;-79
2024/01/26 02:21:51;;;;;;;0.98;0.98;;;9.30;99.90;;;;;;4989377;28;20049;-78
2024/01/26 02:24:18;;;;;;;0.40;0.40;;;9.30;99.90;;;;;;4988081;28;20038;-79
2024/01/26 02:26:44;;;;;;;;;;;9.30;99.90;;;;;;4990572;28;20038;-79
2024/01/26 02:29:10;;;;;;;5.82;3.08;;;9.30;99.90;;;;;;4975755;28;19921;-79
2024/01/26 02:31:36;;;;;;;1.48;1.42;;;9.30;99.90;;;;;;4988834;28;20122;-78
2024/01/26 02:34:02;;;;;;;;;;;9.30;99.90;;;;;;5005182;28;20050;-79
2024/01/26 02:36:29;;;;;;;1.20;0.98;;;9.40;99.90;;;;;;5008802;28;19925;-79
2024/01/26 02:38:54;;;;;;;0.50;0.50;;;9.40;99.90;;;;;;5006968;28;20427;-78
2024/01/26 02:41:22;;;;;;;2.08;1.98;;;9.40;99.90;;;;;;4988489;28;20057;-79
2024/01/26 02:43:53;;;;;;;1.08;0.98;;;9.40;99.90;;;;;;4990094;28;20050;-79
2024/01/26 02:46:19;;;;;;;;;;;9.40;99.90;;;;;;4989918;28;20042;-80
2024/01/26 02:48:45;;;;;;;4.65;4.28;;;9.40;99.90;;;;;;4988730;28;19941;-79
2024/01/26 02:51:11;;;;;;;2.30;1.52;;;9.40;99.90;;;;;;4987834;28;20124;-79
2024/01/26 02:53:40;;;;;;;4.82;1.95;;;9.40;99.90;;;;;;5002917;28;20124;-78
2024/01/26 02:56:07;;;;;;;1.88;1.77;;;9.40;99.90;;;;;;5002452;28;20104;-78
2024/01/26 02:58:32;;;;;;;1.35;1.25;;;9.40;99.90;;;;;;4988989;28;20037;-79
2024/01/26 03:00:58;;;;;;;1.10;1.10;;;9.40;99.90;;;;;;4988136;28;20053;-79
2024/01/26 03:03:24;;;;;;;0.93;0.93;;;9.40;99.90;;;;;;5004874;28;20085;-79
2024/01/26 03:05:49;;;;;;;3.17;2.85;;;9.40;99.90;;;;;;4973337;28;20385;-79
2024/01/26 03:08:15;;;;;;;0.98;0.98;;;9.40;99.90;;;;;;5007089;28;20057;-78
2024/01/26 03:10:41;;;;;;;1.52;1.23;;;9.40;99.90;;;;;;4988308;28;20153;-79
2024/01/26 03:13:07;;;;;;;0.93;0.93;;;9.40;99.90;;;;;;4991222;28;20041;-79
2024/01/26 03:15:32;;;;;;;2.97;1.73;;;9.40;99.90;;;;;;4987586;28;20056;-78
2024/01/26 03:17:58;;;;;;;3.28;3.08;;;9.40;99.90;;;;;;5005461;28;20136;-78
2024/01/26 03:20:24;;;;;;;1.55;1.45;;;9.40;99.90;;;;;;4975341;28;20037;-78
2024/01/26 03:22:49;;;;;;;2.35;2.25;;;9.50;99.90;;;;;;4994977;28;20138;-77
2024/01/26 03:25:15;;;;;;;1.58;1.48;;;9.50;99.90;;;;;;4989932;28;20407;-78
2024/01/26 03:27:44;;;;;;;1.63;1.52;;;9.50;99.90;;;;;;5004008;28;20042;-78
2024/01/26 03:30:10;;;;;;;1.50;1.42;;;9.50;99.90;;;;;;4992570;28;20049;-77
2024/01/26 03:32:36;;;;;;;1.13;1.10;;;9.40;99.90;;;;;;5014565;28;20053;-78
2024/01/26 03:35:01;;;;;;;1.38;1.27;;;9.50;99.90;;;;;;5005356;28;20045;-77
2024/01/26 03:37:27;;;;;;;1.05;1.00;;;9.50;99.90;;;;;;4987349;28;20498;-78
2024/01/26 03:39:53;;;;;;;1.80;1.70;;;9.50;99.90;;;;;;4997004;28;20709;-79
2024/01/26 03:42:20;;;;;;;1.25;1.15;;;9.50;99.90;;;;;;5010164;28;20042;-78
2024/01/26 03:44:46;;;;;;;1.48;1.38;;;9.50;99.90;;;;;;4991560;28;20128;-78
2024/01/26 03:47:11;;;;;;;3.25;2.83;;;9.60;99.90;;;;;;4989913;28;20436;-78
2024/01/26 03:49:44;;;;;;;1.55;0.77;;;9.50;99.90;;;;;;5001935;28;20042;-78
2024/01/26 03:52:10;;;;;;;3.42;3.22;;;9.50;99.90;;;;;;4974972;28;20209;-78
2024/01/26 03:54:36;;;;;;;1.15;1.15;;;9.50;99.90;;;;;;4991640;28;20385;-79
2024/01/26 03:57:02;;;;;;;1.10;1.10;;;9.50;99.90;;;;;;5006498;28;20060;-78
2024/01/26 03:59:28;;;;;;;1.33;1.23;;;9.60;99.90;;;;;;4989711;28;20188;-78
2024/01/26 04:01:54;;;;;;;0.65;0.65;;;9.60;99.90;;;;;;4975119;28;20042;-78
2024/01/26 04:04:19;;;;;;;4.00;2.03;;;9.50;99.90;;;;;;4974189;28;20046;-77
2024/01/26 04:06:45;;;;;;;3.35;3.05;;;9.60;99.90;;;;;;4987078;28;20038;-77
2024/01/26 04:09:11;;;;;;;1.92;1.73;;;9.50;99.90;;;;;;4994399;28;20091;-77
2024/01/26 04:11:40;;;;;;;1.25;1.00;;;9.50;99.90;;;;;;5008893;28;20117;-77
2024/01/26 04:14:06;;;;;;;1.50;1.40;;;9.50;99.90;;;;;;5008421;28;20060;-78
2024/01/26 04:16:32;;;;;;;2.03;1.92;;;9.50;99.90;;;;;;4989284;28;20200;-77
2024/01/26 04:18:57;;;;;;;0.95;0.95;;;9.50;99.90;;;;;;4991371;28;20527;-77
2024/01/26 04:21:23;;;;;;;0.95;0.95;;;9.70;99.90;;;;;;4992977;28;20495;-78
2024/01/26 04:23:49;;;;;;;0.70;0.70;;;9.70;99.90;;;;;;5008003;28;20034;-78
2024/01/26 04:26:15;;;;;;;4.07;3.30;;;9.60;99.90;;;;;;5009263;28;20407;-78
2024/01/26 04:28:41;;;;;;;5.50;3.08;;;9.60;99.90;;;;;;4991844;28;20046;-78
2024/01/26 04:31:07;;;;;;;;;;;9.60;99.90;;;;;;5008165;28;20053;-78
2024/01/26 04:33:33;;;;;;;1.10;1.10;;;9.70;99.90;;;;;;4995411;28;20375;-77
2024/01/26 04:35:59;;;;;;;1.27;1.15;;;9.70;99.90;;;;;;4989259;28;20044;-78
2024/01/26 04:38:25;;;;;;;;;;;9.80;99.90;;;;;;4990445;28;20574;-78
2024/01/26 04:40:51;;;;;;;0.50;0.50;;;9.70;99.90;;;;;;5006641;28;20024;-77
2024/01/26 04:43:17;;;;;;;6.30;2.75;;;9.70;99.90;;;;;;5010912;28;20048;-78
2024/01/26 04:45:49;;;;;;;0.73;0.73;;;9.70;99.90;;;;;;5008801;28;20526;-77
2024/01/26 04:48:15;;;;;;;0.63;0.63;;;9.70;99.90;;;;;;4975429;28;20073;-78
2024/01/26 04:50:41;;;;;;;2.95;0.88;;;9.70;99.90;;;;;;5010106;28;20096;-80
2024/01/26 04:53:06;;;;;;;0.50;0.50;;;9.70;99.90;;;;;;5009165;28;20065;-83
2024/01/26 04:55:33;;;;;;;2.33;2.13;;;9.80;99.90;;;;;;4990522;28;20045;-81
2024/01/26 04:58:00;;;;;;;1.17;1.17;;;9.80;99.90;;;;;;4972393;28;20495;-82
2024/01/26 05:00:26;;;;;;;0.50;0.50;;;9.90;99.90;;;;;;5005664;28;20053;-81
2024/01/26 05:02:53;;;;;;;1.10;1.00;;;9.90;99.90;;;;;;4993930;28;20041;-81
2024/01/26 05:05:19;;;;;;;1.90;1.70;;;9.90;99.90;;;;;;4992046;28;20069;-80
2024/01/26 05:07:44;;;;;;;1.58;1.48;;;9.90;99.90;;;;;;4991849;28;20069;-80
2024/01/26 05:10:11;;;;;;;2.35;1.08;;;10.00;99.90;;;;;;5008800;28;20038;-81
2024/01/26 05:12:39;;;;;;;0.50;0.50;;;9.90;99.90;;;;;;4991689;28;20055;-81
2024/01/26 05:15:09;;;;;;;1.00;1.00;;;10.00;99.90;;;;;;5008003;28;20418;-81
2024/01/26 05:17:38;;;;;;;0.95;0.95;;;10.00;99.90;;;;;;4993545;28;20046;-81
2024/01/26 05:20:06;;;;;;;1.50;1.15;;;10.00;99.90;;;;;;4988810;28;20065;-81
2024/01/26 05:22:33;;;;;;;0.85;0.80;;;10.10;99.90;;;;;;4991450;28;20042;-81
2024/01/26 05:24:59;;;;;;;0.93;0.75;;;10.00;99.90;;;;;;4989694;28;20045;-81
2024/01/26 05:27:25;;;;;;;;;;;10.10;99.90;;;;;;5003110;28;20036;-81
2024/01/26 05:29:51;;;;;;;0.98;0.98;;;10.10;99.90;;;;;;4991374;28;19917;-81
2024/01/26 05:32:19;;;;;;;3.88;2.90;;;10.10;99.90;;;;;;5010464;28;20092;-81
2024/01/26 05:34:45;;;;;;;0.73;0.73;;;10.20;99.90;;;;;;4995437;28;20045;-82
2024/01/26 05:37:11;;;;;;;0.52;0.52;;;10.20;99.90;;;;;;5004667;28;20042;-80
2024/01/26 05:39:37;;;;;;;1.42;1.10;;;10.20;99.90;;;;;;5005683;28;20135;-83
2024/01/26 05:42:03;;;;;;;;;;;10.20;99.90;;;;;;4992262;28;20045;-84
2024/01/26 05:44:35;;;;;;;0.47;0.47;;;10.20;99.90;;;;;;4990548;28;19971;-83
2024/01/26 05:47:01;;;;;;;2.72;1.13;;;10.10;99.90;;;;;;4989240;28;20054;-83
2024/01/26 05:49:27;;;;;;;;;;;10.20;99.90;;;;;;4993411;28;20100;-83
2024/01/26 05:51:54;;;;;;;0.40;0.40;;;10.10;99.90;;;;;;5007708;28;19917;-83
2024/01/26 05:54:19;;;;;;;1.05;1.05;;;10.10;99.90;;;;;;4988779;28;20042;-83
2024/01/26 05:56:45;;;;;;;0.50;0.50;;;9.20;99.90;;;;;;5001678;28;20096;-82
2024/01/26 05:59:11;;;;;;;0.70;0.57;;;10.10;99.90;;;;;;4970347;28;20111;-78
2024/01/26 06:01:37;;;;;;;0.40;0.40;;;10.10;99.90;;;;;;4984908;28;20041;-77
2024/01/26 06:04:05;;;;;;;0.40;0.40;;;10.10;99.90;;;;;;4985879;28;20076;-77
2024/01/26 06:06:31;;;;;;;0.60;0.60;;;10.10;99.90;;;;;;4985721;28;20038;-78
2024/01/26 06:08:56;;;;;;;1.45;1.35;;;10.10;99.90;;;;;;5005812;28;20042;-77
2024/01/26 06:11:22;;;;;;;0.90;0.85;;;10.20;99.90;;;;;;4988493;28;20034;-77
2024/01/26 06:13:48;;;;;;;0.60;0.60;;;10.20;99.90;;;;;;4988878;28;20146;-78
2024/01/26 06:16:14;;;;;;;0.57;0.57;;;10.40;99.90;;;;;;5003891;28;20049;-77
2024/01/26 06:18:41;;;;;;;3.25;1.15;;;10.50;99.90;;;;;;5004057;28;20061;-77
2024/01/26 06:21:06;;;;;;;1.38;1.30;;;10.30;99.90;;;;;;5002447;28;20050;-77
2024/01/26 06:23:33;;;;;;;0.73;0.73;;;10.50;99.90;;;;;;4992007;28;20037;-77
2024/01/26 06:25:59;;;;;;;1.27;1.27;;;10.40;99.90;;;;;;5004537;28;20057;-78
2024/01/26 06:28:25;;;;;;;0.50;0.50;;;10.40;99.90;;;;;;5006435;28;20034;-78
2024/01/26 06:30:53;;;;;;;1.98;1.70;;;10.50;99.90;;;;;;5011219;28;20061;-77
2024/01/26 06:33:19;;;;;;;0.50;0.50;;;10.50;99.90;;;;;;5026747;28;20038;-77
2024/01/26 06:35:45;;;;;;;2.50;1.45;;;10.50;99.90;;;;;;4993073;28;20041;-77
2024/01/26 06:38:14;;;;;;;1.17;1.15;;;10.40;99.90;;;;;;5013103;28;20045;-78
2024/01/26 06:40:40;;;;;;;0.93;0.93;;;10.50;99.90;;;;;;5007258;28;20063;-77
2024/01/26 06:43:07;;;;;;;;;;;10.50;99.90;;;;;;4974581;28;20132;-77
2024/01/26 06:45:34;;;;;;;0.77;0.77;;;10.70;99.90;;;;;;5009060;28;19929;-76
2024/01/26 06:48:00;;;;;;;0.73;0.73;;;10.70;99.90;;;;;;4990620;28;20069;-76
2024/01/26 06:50:26;;;;;;;0.98;0.90;;;10.50;99.90;;;;;;5006774;28;20038;-75
2024/01/26 06:52:52;;;;;;;1.55;1.40;;;10.50;99.90;;;;;;5003861;28;20609;-75
2024/01/26 06:55:18;;;;;;;1.30;0.85;;;10.40;99.90;;;;;;4978576;28;20120;-75
2024/01/26 06:57:43;;;;;;;0.93;0.93;;;10.50;99.90;;;;;;5009393;28;20045;-76
2024/01/26 07:00:10;;;;;;;0.52;0.52;;;10.60;99.90;;;;;;5007863;28;20045;-75
2024/01/26 07:02:35;;;;;;;0.45;0.45;;;10.50;99.90;;;;;;5012492;28;20427;-77
2024/01/26 07:05:01;;;;;;;0.55;0.43;;;10.40;99.90;;;;;;4996927;28;20042;-77
2024/01/26 07:07:27;;;;;;;0.70;0.70;;;10.40;99.90;;;;;;5011333;28;20038;-77
2024/01/26 07:09:52;;;;;;;0.88;0.88;;;10.40;99.90;;;;;;4996876;28;20069;-76
2024/01/26 07:12:18;;;;;;;0.38;0.38;;;10.50;99.90;;;;;;5008807;28;20128;-76
2024/01/26 07:14:44;;;;;;;0.60;0.60;;;10.50;99.90;;;;;;5015912;28;20183;-77
2024/01/26 07:17:09;;;;;;;0.55;0.55;;;10.60;99.90;;;;;;5000728;28;20044;-75
2024/01/26 07:19:35;;;;;;;0.75;0.75;;;10.60;99.90;;;;;;4992705;28;20045;-75
2024/01/26 07:22:01;;;;;;;1.30;1.27;;;10.70;99.90;;;;;;4995401;28;20048;-76
2024/01/26 07:24:26;;;;;;;0.52;0.52;;;10.60;99.90;;;;;;4995698;28;20053;-75
2024/01/26 07:26:53;;;;;;;0.57;0.47;;;10.50;99.90;;;;;;4994211;28;20041;-76
2024/01/26 07:29:18;;;;;;;1.02;0.77;;;10.80;99.90;;;;;;4976221;28;20041;-75
2024/01/26 07:31:46;;;;;;;0.75;0.65;;;10.60;99.90;;;;;;4972167;28;20050;-74
2024/01/26 07:34:12;;;;;;;0.63;0.63;;;10.60;99.90;;;;;;4994991;28;20042;-75
2024/01/26 07:36:37;;;;;;;1.05;1.05;;;10.60;99.90;;;;;;5007973;28;20041;-74
2024/01/26 07:39:05;;;;;;;;;;;10.60;99.90;;;;;;4998303;28;20503;-75
2024/01/26 07:41:31;;;;;;;0.90;0.90;;;10.60;99.90;;;;;;5010355;28;19917;-74
2024/01/26 07:43:57;;;;;;;1.75;1.35;;;10.60;99.90;;;;;;5011434;28;20042;-75
2024/01/26 07:46:23;;;;;;;0.50;0.50;;;10.60;99.90;;;;;;4978652;28;20095;-74
2024/01/26 07:48:49;;;;;;;0.63;0.63;;;10.60;99.90;;;;;;5011265;28;20041;-75
2024/01/26 07:51:14;;;;;;;0.93;0.93;;;10.70;99.90;;;;;;4995479;28;20079;-75
2024/01/26 07:53:40;;;;;;;0.50;0.50;;;10.80;99.90;;;;;;5032246;28;20410;-74
2024/01/26 07:56:06;;;;;;;0.50;0.50;;;10.60;99.90;;;;;;4996692;28;20037;-75
2024/01/26 07:58:32;;;;;;;0.68;0.68;;;10.80;99.90;;;;;;5010647;28;20118;-74
2024/01/26 08:00:58;;;;;;;0.47;0.47;;;10.70;99.90;;;;;;4991990;28;20480;-74
2024/01/26 08:03:24;;;;;;;0.55;0.55;;;10.80;99.90;;;;;;4987310;28;20077;-74
2024/01/26 08:05:50;;;;;;;;;;;10.80;99.90;;;;;;5001476;28;20052;-75
2024/01/26 08:08:16;;;;;;;1.85;0.60;;;10.80;99.90;;;;;;4994815;28;19921;-74
2024/01/26 08:10:42;;;;;;;0.40;0.40;;;10.70;99.90;;;;;;4996258;28;20124;-74
2024/01/26 08:13:07;;;;;;;0.45;0.45;;;10.80;99.90;;;;;;5002864;28;20440;-76
2024/01/26 08:15:33;;;;;;;0.47;0.47;;;10.80;99.90;;;;;;4978484;28;20040;-76
2024/01/26 08:17:59;;;;;;;0.40;0.40;;;10.70;99.90;;;;;;5010970;28;20148;-76
2024/01/26 08:20:24;;;;;;;0.40;0.40;;;10.70;99.90;;;;;;5009652;28;20546;-75
2024/01/26 08:22:50;;;;;;;0.50;0.50;;;10.70;99.90;;;;;;5011231;28;20044;-76
2024/01/26 08:25:16;;;;;;;0.50;0.50;;;10.70;99.90;;;;;;5030040;28;20045;-75
2024/01/26 08:27:42;;;;;;;0.30;0.30;;;10.70;99.90;;;;;;5010163;28;20053;-75
2024/01/26 08:30:07;;;;;;;0.95;0.95;;;10.70;99.90;;;;;;5010712;28;20034;-76
2024/01/26 08:32:34;;;;;;;2.30;0.77;;;10.70;99.90;;;;;;5009559;28;20109;-75
2024/01/26 08:35:00;;;;;;;0.82;0.82;;;10.60;99.90;;;;;;5012482;28;20038;-76
2024/01/26 08:37:25;;;;;;;0.38;0.38;;;10.80;99.90;;;;;;5011553;28;20122;-76
2024/01/26 08:39:51;;;;;;;0.43;0.43;;;11.10;99.90;;;;;;4991012;28;20056;-76
2024/01/26 08:42:21;;;;;;;0.32;0.32;;;10.70;99.90;;;;;;4997718;28;20120;-76
2024/01/26 08:44:47;;;;;;;0.50;0.50;;;10.70;99.90;;;;;;5015423;28;20045;-76
2024/01/26 08:47:13;;;;;;;0.40;0.40;;;10.70;99.90;;;;;;5010960;28;20041;-76
2024/01/26 08:49:38;;;;;;;0.35;0.35;;;10.60;99.90;;;;;;5011496;28;20064;-75
2024/01/26 08:52:08;;;;;;;0.43;0.43;;;10.70;99.90;;;;;;5013173;28;20109;-75
2024/01/26 08:54:33;;;;;;;1.02;0.60;;;10.60;99.90;;;;;;5015322;28;20120;-76
2024/01/26 08:56:59;;;;;;;0.40;0.40;;;10.70;99.90;;;;;;4977635;28;20149;-76
2024/01/26 08:59:25;;;;;;;0.45;0.45;;;10.70;99.90;;;;;;5030221;28;20048;-76
2024/01/26 09:01:50;;;;;;;0.30;0.30;;;10.70;99.90;;;;;;5010033;28;20065;-74
2024/01/26 09:04:16;;;;;;;1.00;0.50;;;10.70;99.90;;;;;;4977081;28;20048;-74
2024/01/26 09:06:43;;;;;;;0.35;0.35;;;10.70;99.90;;;;;;5025759;28;20505;-75
2024/01/26 09:09:15;;;;;;;0.50;0.50;;;10.60;99.90;;;;;;5011338;28;20045;-76
2024/01/26 09:11:40;;;;;;;;;;;10.60;99.90;;;;;;5008361;28;20095;-75
2024/01/26 09:14:09;;;;;;;0.65;0.65;;;10.70;99.90;;;;;;5009931;28;19926;-75
2024/01/26 09:16:36;;;;;;;0.40;0.40;;;10.70;99.90;;;;;;4958789;28;20052;-74
2024/01/26 09:19:02;;;;;;;0.30;0.30;;;10.60;99.90;;;;;;5026736;28;20124;-75
2024/01/26 09:21:27;;;;;;;0.40;0.40;;;10.10;99.90;;;;;;5010770;28;20045;-76
2024/01/26 09:23:53;;;;;;;0.40;0.40;;;9.70;99.90;;;;;;5009808;28;20049;-76
2024/01/26 09:26:21;;;;;;;0.43;0.43;;;9.20;99.90;;;;;;5012844;28;20045;-74
2024/01/26 09:28:47;;;;;;;0.40;0.40;;;9.20;99.90;;;;;;4977542;28;20040;-76
2024/01/26 09:31:13;;;;;;;0.40;0.40;;;8.80;99.90;;;;;;4996483;28;20054;-87
2024/01/26 09:33:45;;;;;;;0.40;0.40;;;8.90;99.90;;;;;;4995556;28;20056;-87
2024/01/26 09:36:16;;;;;;;0.30;0.30;;;8.90;99.90;;;;;;4979443;28;20100;-86
2024/01/26 09:38:42;;;;;;;0.40;0.40;;;8.80;99.90;;;;;;4979606;28;20049;-84
2024/01/26 09:41:08;;;;;;;0.40;0.40;;;8.80;99.90;;;;;;5037560;28;20044;-85
2024/01/26 09:43:33;;;;;;;0.30;0.30;;;8.90;99.90;;;;;;5016413;28;20057;-88
2024/01/26 09:45:59;;;;;;;0.40;0.40;;;8.70;99.90;;;;;;5001103;28;20491;-85
2024/01/26 09:48:26;;;;;;;0.40;0.40;;;8.50;99.90;;;;;;4999580;28;20045;-85
2024/01/26 09:50:58;;;;;;;0.73;0.73;;;8.80;99.90;;;;;;4995570;28;20107;-85
2024/01/26 09:53:29;;;;;;;0.90;0.85;;;8.80;99.90;;;;;;5030924;28;20037;-86
2024/01/26 09:55:55;;;;;;;1.85;0.65;;;8.70;99.90;;;;;;4992521;28;20037;-88
2024/01/26 09:58:21;;;;;;;0.50;0.50;;;8.10;99.90;;;;;;5012116;28;20041;-86
2024/01/26 10:00:47;;;;;;;;;;;;;;;;;;4998535;28;20128;-89
2024/01/26 10:03:13;;;;;;;0.30;0.30;;;;;;;;;;5012372;28;20298;-88
2024/01/26 10:05:39;;;;;;;;;;;;;;;;;;4995458;28;20076;-87
2024/01/26 10:08:10;;;;;;;0.40;0.40;;;;;;;;;;5012196;28;19963;-88
2024/01/26 10:10:36;;;;;;;0.30;0.30;;;;;;;;;;5012870;28;20040;-86
2024/01/26 10:13:02;;;;;;;;;;;;;;;;;;4999948;28;20117;-88
2024/01/26 10:15:29;;;;;;;0.30;0.30;;;8.20;99.90;;;;;;5012336;28;19953;-88
2024/01/26 10:17:55;;;;;;;0.40;0.40;;;8.10;99.90;;;;;;5018333;28;20075;-82
2024/01/26 10:20:21;;;;;;;;;;;8.10;99.90;;;;;;5013512;28;20061;-87
2024/01/26 10:22:47;;;;;;;0.52;0.52;;;8.00;99.90;;;;;;5008136;28;19952;-86
2024/01/26 10:25:13;;;;;;;0.95;0.95;;;8.00;99.90;;;;;;5035903;28;20045;-87
2024/01/26 10:27:40;;;;;;;0.32;0.32;;;8.10;99.90;;;;;;5013903;28;20124;-88
2024/01/26 10:30:07;;;;;;;0.40;0.40;;;8.00;99.90;;;;;;5002223;28;20152;-86
2024/01/26 10:32:33;;;;;;;0.28;0.28;;;8.10;99.90;;;;;;5008928;28;20057;-81
2024/01/26 10:35:02;;;;;;;0.43;0.43;;;8.10;99.90;;;;;;5016140;28;20148;-84
2024/01/26 10:37:33;;;;;;;0.55;0.55;;;8.20;99.90;;;;;;5013867;28;20068;-83
2024/01/26 10:40:00;;;;;;;0.40;0.40;;;8.00;99.90;;;;;;4992087;28;20053;-85
2024/01/26 10:42:32;;;;;;;0.50;0.50;;;8.20;99.90;;;;;;5030967;28;20044;-83
2024/01/26 10:45:00;;;;;;;2.15;2.05;;;8.30;99.90;;;;;;5011989;28;20136;-82
2024/01/26 10:47:27;;;;;;;0.40;0.40;;;8.30;99.90;;;;;;4994671;28;20096;-83
2024/01/26 10:50:06;;;;;;;0.25;0.25;;;8.40;99.90;;;;;;5011873;28;20375;-83
2024/01/26 10:52:37;;;;;;;1.55;1.45;;;8.40;99.90;;;;;;5011621;28;20041;-85
2024/01/26 10:55:04;;;;;;;0.38;0.38;;;8.40;99.90;;;;;;5012585;28;20044;-83
2024/01/26 10:57:30;;;;;;;0.38;0.38;;;8.30;99.90;;;;;;4994156;28;20048;-83
2024/01/26 10:59:57;;;;;;;0.40;0.40;;;;;;;;;;5011691;28;20428;-83
2024/01/26 11:02:31;;;;;;;0.35;0.35;;;8.40;99.90;;;;;;5010906;28;20092;-88
2024/01/26 11:05:06;;;;;;;0.40;0.40;;;8.40;99.90;;;;;;5008494;28;20051;-83
2024/01/26 11:07:33;;;;;;;5.68;0.73;;;8.40;99.90;;;;;;4994398;28;20378;-85
2024/01/26 11:10:05;;;;;;;2.22;2.13;;;8.50;99.90;;;;;;5025796;28;20037;-87
2024/01/26 11:12:34;;;;;;;0.60;0.60;;;8.50;99.90;;;;;;4995806;28;20049;-81
2024/01/26 11:15:08;;;;;;;0.70;0.70;;;8.50;99.90;;;;;;5011761;28;20046;-86
2024/01/26 11:17:54;;;;;;;0.40;0.40;;;8.50;99.90;;;;;;5011119;28;20122;-88
2024/01/26 11:20:25;;;;;;;0.40;0.40;;;8.50;99.90;;;;;;5010587;28;20490;-84
2024/01/26 11:23:11;;;;;;;1.23;1.23;;;8.50;99.90;;;;;;4995333;28;20091;-84
2024/01/26 11:25:57;;;;;;;0.82;0.65;;;8.60;99.90;;;;;;5011466;28;20096;-86
2024/01/26 11:28:28;;;;;;;1.38;0.75;;;8.60;99.90;;;;;;4995620;28;20049;-86
2024/01/26 11:30:57;;;;;;;0.40;0.40;;;8.50;99.90;;;;;;5010443;28;20129;-83
2024/01/26 11:33:23;;;;;;;0.32;0.32;;;8.60;99.90;;;;;;5011766;28;20045;-85
2024/01/26 11:36:10;;;;;;;0.55;0.55;;;8.50;99.90;;;;;;4999279;28;20098;-86
2024/01/26 11:38:38;;;;;;;0.40;0.40;;;8.50;99.90;;;;;;5012245;28;20093;-84
2024/01/26 11:41:06;;;;;;;0.40;0.40;;;8.40;99.90;;;;;;5026696;28;20041;-85
2024/01/26 11:43:31;;;;;;;0.82;0.82;;;8.40;99.90;;;;;;5011945;28;20517;-87
2024/01/26 11:45:57;;;;;;;0.50;0.50;;;8.50;99.90;;;;;;4997975;28;20033;-83
2024/01/26 11:48:24;;;;;;;1.05;1.05;;;8.50;99.90;;;;;;4994739;28;20503;-85
2024/01/26 11:50:50;;;;;;;0.50;0.50;;;8.50;99.90;;;;;;4998457;28;20045;-76
2024/01/26 11:53:17;;;;;;;0.40;0.40;;;8.60;99.90;;;;;;4990784;28;20060;-76
2024/01/26 11:55:46;;;;;;;0.88;0.88;;;8.40;99.90;;;;;;5008723;28;20114;-75
2024/01/26 11:58:13;;;;;;;0.60;0.60;;;8.50;99.90;;;;;;4989711;28;20041;-77
2024/01/26 12:00:44;;;;;;;0.40;0.40;;;8.80;99.90;;;;;;4994353;28;20513;-77
2024/01/26 12:03:14;;;;;;;0.60;0.60;;;8.60;99.90;;;;;;5005308;28;20041;-76
2024/01/26 12:05:41;;;;;;;0.35;0.35;;;8.60;99.90;;;;;;5008864;28;20049;-76
2024/01/26 12:08:08;;;;;;;0.75;0.75;;;8.40;99.90;;;;;;5009643;28;20479;-77
2024/01/26 12:10:35;;;;;;;0.57;0.57;;;8.20;99.90;;;;;;5008107;28;20368;-78
2024/01/26 12:13:02;;;;;;;1.45;1.15;;;8.10;99.90;;;;;;4990544;28;20045;-78
2024/01/26 12:15:31;;;;;;;0.30;0.30;;;7.90;99.90;;;;;;4992388;28;20087;-78
2024/01/26 12:18:06;;;;;;;0.40;0.40;;;7.70;99.90;;;;;;5002335;28;20127;-77
2024/01/26 12:20:32;;;;;;;2.53;2.28;;;7.50;99.90;;;;;;5005363;28;20433;-76
2024/01/26 12:22:58;;;;;;;0.57;0.57;;;7.50;99.90;;;;;;4982763;28;20051;-77
2024/01/26 12:25:27;;;;;;;5.07;1.25;;;7.50;99.90;;;;;;4979570;28;20038;-77
2024/01/26 12:28:01;;;;;;;0.55;0.55;;;7.70;99.90;;;;;;5003479;28;20041;-77
2024/01/26 12:30:28;;;;;;;0.30;0.30;;;7.80;99.90;;;;;;4981877;28;20426;-77
2024/01/26 12:33:05;;;;;;;0.40;0.40;;;7.90;99.90;;;;;;4984118;28;20410;-78
2024/01/26 12:35:34;;;;;;;1.48;1.38;;;7.80;99.90;;;;;;5002761;28;20042;-77
2024/01/26 12:38:02;;;;;;;1.30;1.30;;;7.60;99.90;;;;;;5017770;28;20048;-77
2024/01/26 12:40:28;;;;;;;0.40;0.40;;;7.40;99.90;;;;;;4988353;28;20487;-77
2024/01/26 12:42:54;;;;;;;;;;;7.30;99.90;;;;;;5022811;28;20053;-77
2024/01/26 12:45:20;;;;;;;0.60;0.60;;;7.20;99.90;;;;;;5000392;28;19929;-77
2024/01/26 12:47:46;;;;;;;0.40;0.40;;;7.20;99.90;;;;;;5000107;28;20041;-77
2024/01/26 12:50:11;;;;;;;0.45;0.45;;;7.20;99.90;;;;;;5001874;28;20111;-77
2024/01/26 12:52:37;;;;;;;7.50;3.03;;;7.20;99.90;;;;;;4999567;28;20072;-77
2024/01/26 12:55:06;;;;;;;0.40;0.40;;;7.20;99.90;;;;;;5001565;28;20045;-77
2024/01/26 12:57:33;;;;;;;0.70;0.70;;;7.30;99.90;;;;;;5004175;28;20068;-78
2024/01/26 12:59:58;;;;;;;0.40;0.40;;;7.50;99.90;;;;;;5006517;28;20509;-77